Time;durP1;ratioP1;P1;durP2;ratioP2;P2;SDS_P1;SDS_P2;PMS_P1;PMS_P2;Temp;Humidity;BMP_temperature;BMP_pressure;BME280_temperature;BME280_humidity;BME280_pressure;Samples;Min_cycle;Max_cycle;Signal;HPM_P1;HPM_P2
2022/02/12 00:00:03;;;;;;;3.70;3.40;;;;;;;4.08;73.09;94946.73;1537079;92;21538;-47
2022/02/12 00:02:32;;;;;;;3.25;3.02;;;;;;;4.03;72.70;94954.58;1547222;91;21068;-47
2022/02/12 00:04:58;;;;;;;3.10;2.90;;;;;;;3.94;72.50;94946.86;1553842;92;21507;-48
2022/02/12 00:07:25;;;;;;;3.17;3.08;;;;;;;3.87;71.83;94959.13;1535909;92;21028;-47
2022/02/12 00:09:53;;;;;;;3.50;3.30;;;;;;;3.84;71.94;94962.66;1535143;92;21207;-47
2022/02/12 00:12:20;;;;;;;3.77;3.47;;;;;;;3.88;71.83;94966.12;1552293;92;21213;-47
2022/02/12 00:14:48;;;;;;;3.85;3.55;;;;;;;3.87;71.51;94971.38;1554684;91;21503;-47
2022/02/12 00:17:15;;;;;;;3.60;3.40;;;;;;;3.81;71.44;94979.00;1553983;90;21007;-47
2022/02/12 00:19:42;;;;;;;3.70;3.40;;;;;;;3.74;71.24;94981.20;1552525;92;21309;-46
2022/02/12 00:22:09;;;;;;;3.72;3.52;;;;;;;3.64;71.60;94985.31;1534578;92;21187;-47
2022/02/12 00:24:37;;;;;;;4.17;3.87;;;;;;;3.65;72.00;94992.33;1537791;92;21040;-47
2022/02/12 00:27:04;;;;;;;8.23;7.62;;;;;;;3.68;71.97;95007.25;1536423;92;21209;-46
2022/02/12 00:29:30;;;;;;;5.58;5.17;;;;;;;3.70;72.04;95008.98;1552622;91;21123;-47
2022/02/12 00:31:57;;;;;;;4.80;4.50;;;;;;;3.77;72.22;95021.78;1535879;92;21159;-47
2022/02/12 00:34:24;;;;;;;4.50;4.20;;;;;;;3.80;71.93;95019.05;1552133;91;21643;-47
2022/02/12 00:36:51;;;;;;;5.30;4.90;;;;;;;3.83;71.91;95018.25;1551413;91;21081;-47
2022/02/12 00:39:17;;;;;;;4.45;4.15;;;;;;;3.87;71.89;95025.80;1554845;90;21475;-48
2022/02/12 00:41:44;;;;;;;4.90;4.50;;;;;;;3.95;71.90;95024.61;1516942;92;21015;-47
2022/02/12 00:44:10;;;;;;;6.95;5.40;;;;;;;4.00;71.76;95026.91;1552417;92;21111;-47
2022/02/12 00:46:37;;;;;;;5.25;4.75;;;;;;;4.02;71.96;95021.07;1535455;92;21100;-47
2022/02/12 00:49:04;;;;;;;7.40;5.55;;;;;;;4.01;71.77;95024.37;1551226;91;21064;-47
2022/02/12 00:51:31;;;;;;;6.22;5.62;;;;;;;4.02;72.11;95028.64;1552307;90;21082;-47
2022/02/12 00:54:02;;;;;;;6.40;5.45;;;;;;;4.15;72.22;95033.02;1552390;92;21036;-48
2022/02/12 00:56:29;;;;;;;5.12;4.62;;;;;;;4.20;71.51;95029.91;1536809;90;21519;-48
2022/02/12 00:58:56;;;;;;;8.33;6.20;;;;;;;4.19;71.48;95042.73;1535748;92;21946;-47
2022/02/12 01:01:24;;;;;;;6.35;5.75;;;;;;;4.25;71.23;95042.48;1545601;92;21118;-47
2022/02/12 01:03:51;;;;;;;9.50;6.78;;;;;;;4.31;71.34;95049.07;1554348;92;21606;-47
2022/02/12 01:06:18;;;;;;;6.30;5.70;;;;;;;4.36;71.16;95051.94;1553301;91;21104;-47
2022/02/12 01:08:46;;;;;;;5.60;5.10;;;;;;;4.32;70.81;95053.34;1535291;92;21016;-45
2022/02/12 01:11:13;;;;;;;6.05;5.05;;;;;;;4.22;70.70;95052.81;1536393;92;22293;-47
2022/02/12 01:13:41;;;;;;;6.92;5.62;;;;;;;4.21;70.68;95054.59;1553667;91;21012;-47
2022/02/12 01:16:08;;;;;;;6.03;5.42;;;;;;;4.19;70.46;95052.25;1551304;91;21044;-47
2022/02/12 01:18:35;;;;;;;5.90;5.28;;;;;;;4.17;69.91;95043.72;1553685;91;21023;-47
2022/02/12 01:21:01;;;;;;;7.33;6.25;;;;;;;4.20;70.24;95045.63;1534361;92;21208;-46
2022/02/12 01:23:28;;;;;;;6.70;5.78;;;;;;;4.28;70.40;95053.93;1552285;92;21177;-46
2022/02/12 01:25:54;;;;;;;7.58;5.50;;;;;;;4.34;70.07;95054.29;1517572;91;21103;-47
2022/02/12 01:28:21;;;;;;;8.78;5.12;;;;;;;4.32;70.03;95056.64;1550314;92;21684;-46
2022/02/12 01:30:48;;;;;;;6.03;5.37;;;;;;;4.29;69.72;95069.13;1535503;92;21094;-47
2022/02/12 01:33:15;;;;;;;7.28;5.50;;;;;;;4.29;69.78;95069.70;1552277;92;21151;-46
2022/02/12 01:35:42;;;;;;;9.80;6.03;;;;;;;4.31;69.88;95070.86;1533645;92;21488;-47
2022/02/12 01:38:09;;;;;;;8.18;5.65;;;;;;;4.35;69.96;95066.73;1551401;91;21096;-47
2022/02/12 01:40:35;;;;;;;10.93;7.40;;;;;;;4.28;70.09;95062.09;1554447;91;21073;-47
2022/02/12 01:43:02;;;;;;;11.83;7.03;;;;;;;4.18;70.42;95061.59;1555025;92;21040;-47
2022/02/12 01:45:30;;;;;;;12.30;8.00;;;;;;;4.08;70.33;95068.47;1554346;92;21444;-48
2022/02/12 01:47:56;;;;;;;11.25;8.18;;;;;;;3.98;70.64;95078.23;1551301;92;21176;-47
2022/02/12 01:50:24;;;;;;;10.75;8.08;;;;;;;3.90;70.99;95072.63;1553180;92;21051;-47
2022/02/12 01:52:51;;;;;;;13.45;9.33;;;;;;;3.88;70.99;95088.58;1551695;92;21107;-47
2022/02/12 01:55:20;;;;;;;14.65;10.05;;;;;;;3.84;71.00;95085.70;1552298;92;21480;-47
2022/02/12 01:57:47;;;;;;;13.80;9.73;;;;;;;3.88;71.46;95091.30;1529609;92;21509;-46
2022/02/12 02:00:16;;;;;;;12.75;8.65;;;;;;;3.99;71.32;95093.97;1542105;92;21233;-46
2022/02/12 02:02:44;;;;;;;12.63;8.28;;;;;;;4.06;70.96;95097.44;1531363;92;21155;-47
2022/02/12 02:05:12;;;;;;;9.83;7.05;;;;;;;4.13;70.57;95104.22;1554392;92;21128;-47
2022/02/12 02:07:40;;;;;;;11.15;8.78;;;;;;;4.11;70.53;95107.14;1552341;92;21143;-47
2022/02/12 02:10:14;;;;;;;12.53;9.60;;;;;;;3.99;70.91;95102.92;1551694;92;21529;-47
2022/02/12 02:12:40;;;;;;;13.20;10.13;;;;;;;3.87;71.33;95096.55;1516493;92;21175;-47
2022/02/12 02:15:08;;;;;;;13.85;9.60;;;;;;;3.92;72.09;95104.33;1555537;91;20976;-47
2022/02/12 02:17:35;;;;;;;13.08;9.78;;;;;;;3.99;71.83;95100.77;1553357;92;21141;-46
2022/02/12 02:20:05;;;;;;;13.20;9.70;;;;;;;4.02;71.42;95106.21;1551224;92;21090;-47
2022/02/12 02:22:53;;;;;;;12.30;9.33;;;;;;;4.01;71.58;95116.13;1552832;90;21103;-47
2022/02/12 02:25:22;;;;;;;9.10;7.92;;;;;;;4.04;71.83;95121.55;1530791;92;21225;-46
2022/02/12 02:27:49;;;;;;;10.90;8.85;;;;;;;4.07;71.31;95130.29;1553198;92;21033;-47
2022/02/12 02:30:18;;;;;;;10.03;8.50;;;;;;;4.06;71.19;95136.91;1551283;91;21052;-48
2022/02/12 02:32:44;;;;;;;11.55;8.85;;;;;;;4.02;71.28;95138.11;1553338;91;21112;-46
2022/02/12 02:35:13;;;;;;;10.03;7.30;;;;;;;4.01;71.31;95146.85;1554085;92;21139;-47
2022/02/12 02:37:42;;;;;;;9.98;7.37;;;;;;;3.94;71.17;95143.38;1552919;92;21181;-47
2022/02/12 02:40:19;;;;;;;8.25;6.87;;;;;;;3.80;71.29;95150.23;1552760;90;20996;-47
2022/02/12 02:42:47;;;;;;;9.40;7.55;;;;;;;3.71;71.86;95156.08;1548585;92;21123;-48
2022/02/12 02:45:14;;;;;;;6.00;5.40;;;;;;;3.75;71.59;95164.24;1552233;92;21551;-49
2022/02/12 02:47:42;;;;;;;6.05;5.45;;;;;;;3.64;71.34;95173.80;1553340;91;21459;-47
2022/02/12 02:55:59;;;;;;;8.13;6.45;;;;;;;3.14;71.46;95182.98;1552673;90;21047;-48
2022/02/12 02:58:39;;;;;;;6.87;6.28;;;;;;;3.01;71.35;95193.47;1552780;91;21518;-48
2022/02/12 03:01:11;;;;;;;7.60;6.85;;;;;;;2.92;71.84;95192.30;1554091;92;20987;-47
2022/02/12 03:03:39;;;;;;;8.00;7.08;;;;;;;2.89;71.73;95205.31;1553507;91;21885;-47
2022/02/12 03:06:07;;;;;;;8.13;6.55;;;;;;;2.88;71.98;95206.47;1553937;92;21197;-47
2022/02/12 03:08:34;;;;;;;7.00;6.40;;;;;;;2.87;71.68;95211.72;1554978;92;21086;-47
2022/02/12 03:11:01;;;;;;;13.38;10.35;;;;;;;2.79;71.54;95226.44;1536459;92;21133;-46
2022/02/12 03:13:28;;;;;;;11.12;9.53;;;;;;;2.72;71.80;95218.28;1552468;90;21560;-47
2022/02/12 03:15:55;;;;;;;10.72;9.35;;;;;;;2.64;72.27;95222.92;1538946;92;21242;-47
2022/02/12 03:18:21;;;;;;;11.35;10.13;;;;;;;2.64;72.20;95235.71;1552950;90;21127;-47
2022/02/12 03:20:48;;;;;;;11.05;9.95;;;;;;;2.65;72.50;95240.77;1553467;91;21495;-47
2022/02/12 03:23:16;;;;;;;9.90;8.30;;;;;;;2.66;71.85;95243.69;1554415;92;21016;-46
2022/02/12 03:25:43;;;;;;;12.05;9.30;;;;;;;2.60;71.68;95251.23;1553346;92;21035;-48
2022/02/12 03:28:11;;;;;;;26.07;13.48;;;;;;;2.44;71.73;95254.29;1553929;91;21985;-47
2022/02/12 03:30:41;;;;;;;14.85;10.15;;;;;;;2.36;69.82;95254.64;1554185;91;21028;-47
2022/02/12 03:33:08;;;;;;;11.10;7.92;;;;;;;2.30;69.64;95257.55;1553696;92;21127;-50
2022/02/12 03:35:35;;;;;;;10.10;7.67;;;;;;;2.27;70.31;95260.99;1534892;92;21119;-47
2022/02/12 03:38:14;;;;;;;8.90;6.85;;;;;;;2.28;70.88;95258.47;1546424;92;21604;-47
2022/02/12 03:40:45;;;;;;;9.53;7.67;;;;;;;2.35;71.31;95258.52;1551815;91;21178;-47
2022/02/12 03:43:12;;;;;;;5.47;4.95;;;;;;;2.44;71.44;95258.93;1552232;92;21245;-48
2022/02/12 03:45:39;;;;;;;5.60;5.10;;;;;;;2.45;71.47;95268.63;1552504;91;21831;-47
2022/02/12 03:48:06;;;;;;;5.03;4.45;;;;;;;2.50;71.86;95276.42;1554336;90;21139;-48
2022/02/12 03:50:34;;;;;;;9.48;6.85;;;;;;;2.59;71.53;95283.63;1534433;92;21067;-47
2022/02/12 03:53:03;;;;;;;12.00;7.60;;;;;;;2.50;71.37;95277.19;1553021;91;21135;-47
2022/02/12 03:55:31;;;;;;;11.97;8.10;;;;;;;2.47;71.57;95280.67;1553782;91;20992;-48
2022/02/12 03:57:57;;;;;;;12.85;8.80;;;;;;;2.49;71.74;95285.14;1553040;90;21501;-48
2022/02/12 04:00:25;;;;;;;11.00;8.65;;;;;;;2.58;72.13;95284.22;1551218;92;21073;-47
2022/02/12 04:02:52;;;;;;;36.90;26.55;;;;;;;2.65;71.66;95291.02;1552015;91;21099;-47
2022/02/12 04:05:21;;;;;;;46.28;29.02;;;;;;;2.63;71.60;95283.05;1535204;92;21187;-48
2022/02/12 04:07:49;;;;;;;48.73;29.85;;;;;;;2.66;71.71;95291.21;1536024;92;21163;-47
2022/02/12 04:10:17;;;;;;;21.90;13.30;;;;;;;2.55;71.63;95287.70;1556457;91;21491;-48
2022/02/12 04:12:45;;;;;;;19.75;12.68;;;;;;;2.44;71.78;95285.52;1553838;92;21143;-48
2022/02/12 04:15:12;;;;;;;21.90;13.90;;;;;;;2.40;71.97;95286.66;1553705;90;21215;-47
2022/02/12 04:17:39;;;;;;;22.27;15.53;;;;;;;2.38;72.17;95285.69;1554568;92;21212;-51
2022/02/12 04:20:10;;;;;;;19.02;12.70;;;;;;;2.49;72.58;95291.16;1552094;92;21084;-48
2022/02/12 04:22:38;;;;;;;15.70;12.47;;;;;;;2.78;71.75;95290.87;1554010;92;21043;-47
2022/02/12 04:25:07;;;;;;;18.23;14.10;;;;;;;2.78;71.75;95290.87;1556567;90;21185;-47
2022/02/12 04:27:34;;;;;;;17.45;10.13;;;;;;;2.84;70.74;95296.11;1552582;92;21051;-48
2022/02/12 04:30:02;;;;;;;9.60;8.50;;;;;;;2.85;70.69;95302.34;1552406;91;21885;-48
2022/02/12 04:32:29;;;;;;;11.05;8.18;;;;;;;2.87;70.62;95306.80;1553200;92;21249;-47
2022/02/12 04:34:55;;;;;;;11.75;9.55;;;;;;;2.83;70.39;95312.22;1517378;92;21147;-47
2022/02/12 04:37:23;;;;;;;10.30;9.25;;;;;;;2.82;70.28;95316.67;1551641;91;21114;-48
2022/02/12 04:39:50;;;;;;;11.30;9.60;;;;;;;2.83;70.02;95316.30;1533374;90;21076;-49
2022/02/12 04:42:17;;;;;;;6.45;5.95;;;;;;;2.83;70.24;95320.38;1556162;91;21189;-48
2022/02/12 04:44:50;;;;;;;6.47;5.78;;;;;;;2.88;70.21;95319.23;1555044;92;21473;-47
2022/02/12 04:47:17;;;;;;;38.45;17.15;;;;;;;2.98;69.21;95327.97;1553651;90;21084;-47
2022/02/12 04:49:46;;;;;;;27.62;16.10;;;;;;;2.95;68.63;95325.47;1552311;91;21039;-47
2022/02/12 04:52:14;;;;;;;34.13;18.23;;;;;;;2.91;68.96;95329.32;1536455;92;21086;-47
2022/02/12 04:54:41;;;;;;;52.15;24.95;;;;;;;2.79;69.02;95319.59;1551411;91;21173;-48
2022/02/12 04:57:08;;;;;;;73.52;39.88;;;;;;;2.60;69.23;95322.63;1553178;92;21218;-48
2022/02/12 04:59:35;;;;;;;60.60;37.42;;;;;;;2.57;69.74;95317.97;1555132;91;21092;-48
2022/02/12 05:02:03;;;;;;;40.52;23.52;;;;;;;2.63;69.58;95325.14;1552773;92;21015;-46
2022/02/12 05:04:30;;;;;;;30.50;18.80;;;;;;;2.60;68.98;95331.34;1552538;90;21102;-48
2022/02/12 05:06:56;;;;;;;33.00;18.67;;;;;;;2.45;68.79;95336.50;1534283;92;21077;-47
2022/02/12 05:09:23;;;;;;;26.85;16.07;;;;;;;2.32;69.10;95338.02;1534785;92;21112;-48
2022/02/12 05:11:54;;;;;;;65.55;34.78;;;;;;;2.32;69.25;95334.70;1552197;91;21136;-47
2022/02/12 05:14:21;;;;;;;52.40;30.12;;;;;;;2.39;69.23;95337.47;1551283;92;21155;-47
2022/02/12 05:16:48;;;;;;;30.92;17.67;;;;;;;2.50;69.28;95348.38;1552755;91;21033;-47
2022/02/12 05:19:16;;;;;;;56.83;32.53;;;;;;;2.52;69.44;95348.77;1552355;91;21223;-47
2022/02/12 05:21:43;;;;;;;51.68;29.42;;;;;;;2.54;69.60;95351.88;1552323;92;21039;-46
2022/02/12 05:24:10;;;;;;;62.13;39.35;;;;;;;2.60;69.52;95351.70;1554348;91;21503;-46
2022/02/12 05:26:36;;;;;;;39.92;24.77;;;;;;;2.61;69.30;95354.63;1552560;91;20999;-46
2022/02/12 05:29:03;;;;;;;45.83;28.90;;;;;;;2.61;69.34;95353.27;1536461;92;21370;-47
2022/02/12 05:31:30;;;;;;;116.05;60.28;;;;;;;2.57;69.73;95368.77;1547460;91;21992;-47
2022/02/12 05:33:56;;;;;;;132.72;70.03;;;;;;;2.60;69.87;95370.72;1553625;91;21167;-47
2022/02/12 05:36:24;;;;;;;51.42;32.65;;;;;;;2.63;69.83;95371.31;1552030;91;21194;-47
2022/02/12 05:38:50;;;;;;;33.98;24.35;;;;;;;2.72;69.66;95373.11;1551413;92;21588;-47
2022/02/12 05:41:17;;;;;;;56.88;36.33;;;;;;;2.73;69.40;95384.94;1551531;92;21599;-48
2022/02/12 05:43:44;;;;;;;58.90;37.67;;;;;;;2.71;69.55;95389.97;1554523;91;21095;-48
2022/02/12 05:46:11;;;;;;;49.80;30.65;;;;;;;2.69;69.50;95390.94;1555483;91;21609;-47
2022/02/12 05:48:38;;;;;;;39.00;26.52;;;;;;;2.60;69.49;95397.87;1553253;91;21092;-47
2022/02/12 05:51:05;;;;;;;51.55;28.05;;;;;;;2.55;69.61;95402.32;1552073;91;21575;-48
2022/02/12 05:53:32;;;;;;;43.63;29.85;;;;;;;2.58;69.97;95403.70;1552938;91;21058;-48
2022/02/12 05:55:59;;;;;;;42.48;26.10;;;;;;;2.69;70.25;95409.19;1552662;92;21167;-48
2022/02/12 05:58:27;;;;;;;36.95;24.87;;;;;;;2.77;69.97;95405.34;1552281;92;21537;-47
2022/02/12 06:00:53;;;;;;;39.98;22.82;;;;;;;2.77;70.06;95409.41;1552015;90;21076;-47
2022/02/12 06:03:20;;;;;;;74.62;42.20;;;;;;;2.77;70.09;95414.84;1555274;91;21146;-47
2022/02/12 06:05:48;;;;;;;85.12;48.15;;;;;;;2.75;69.58;95419.87;1553565;90;21149;-48
2022/02/12 06:08:15;;;;;;;96.67;52.33;;;;;;;2.60;69.14;95422.32;1535706;92;21508;-47
2022/02/12 06:10:43;;;;;;;101.67;55.90;;;;;;;2.49;69.17;95416.06;1551252;92;21029;-48
2022/02/12 06:13:09;;;;;;;82.62;46.55;;;;;;;2.42;69.57;95414.65;1552706;91;21547;-47
2022/02/12 06:15:36;;;;;;;95.62;54.33;;;;;;;2.48;69.75;95425.38;1553249;91;21128;-46
2022/02/12 06:18:05;;;;;;;78.22;42.45;;;;;;;2.54;69.39;95433.35;1548706;91;21040;-48
2022/02/12 06:20:31;;;;;;;64.25;35.05;;;;;;;2.65;69.07;95433.61;1539659;91;21157;-47
2022/02/12 06:22:59;;;;;;;63.73;33.48;;;;;;;2.73;68.72;95428.99;1531895;92;21050;-46
2022/02/12 06:25:26;;;;;;;54.63;31.85;;;;;;;2.83;68.39;95441.86;1539895;92;21128;-47
2022/02/12 06:27:53;;;;;;;52.20;29.35;;;;;;;2.94;68.10;95442.68;1540889;91;21093;-47
2022/02/12 06:30:20;;;;;;;39.60;24.85;;;;;;;3.02;67.98;95444.28;1539641;92;21044;-48
2022/02/12 06:32:47;;;;;;;31.55;19.77;;;;;;;3.22;67.05;95440.09;1539656;91;21348;-49
2022/02/12 06:35:14;;;;;;;33.58;19.23;;;;;;;3.27;65.96;95442.43;1534494;92;21131;-47
2022/02/12 06:37:41;;;;;;;27.58;18.10;;;;;;;3.18;65.52;95443.35;1554020;91;21666;-47
2022/02/12 06:40:10;;;;;;;48.05;28.05;;;;;;;3.17;65.43;95454.03;1555172;90;21058;-48
2022/02/12 06:42:37;;;;;;;54.45;32.20;;;;;;;3.22;65.29;95450.37;1535114;90;21642;-47
2022/02/12 06:45:05;;;;;;;55.30;34.45;;;;;;;3.23;65.29;95455.23;1528922;92;21192;-49
2022/02/12 06:47:33;;;;;;;73.30;42.15;;;;;;;3.20;65.64;95449.98;1539541;92;21096;-47
2022/02/12 06:49:59;;;;;;;88.25;49.40;;;;;;;3.19;65.65;95448.98;1551443;92;21182;-47
2022/02/12 06:52:26;;;;;;;91.12;48.28;;;;;;;3.02;66.07;95449.72;1531444;91;21549;-47
2022/02/12 06:54:54;;;;;;;94.10;51.15;;;;;;;2.85;66.15;95455.25;1540825;91;21148;-47
2022/02/12 06:57:21;;;;;;;80.05;42.03;;;;;;;2.75;66.46;95456.55;1539605;92;21110;-48
2022/02/12 06:59:48;;;;;;;100.82;51.77;;;;;;;2.81;66.60;95453.10;1529023;91;21136;-48
2022/02/12 07:02:15;;;;;;;119.45;60.43;;;;;;;2.95;66.44;95455.89;1540157;92;21124;-47
2022/02/12 07:04:42;;;;;;;97.70;49.50;;;;;;;3.04;65.83;95456.31;1542650;91;21164;-48
2022/02/12 07:07:09;;;;;;;73.05;43.20;;;;;;;3.04;65.79;95458.27;1541350;92;21192;-49
2022/02/12 07:09:36;;;;;;;64.20;39.25;;;;;;;3.03;65.67;95460.79;1542482;91;22029;-47
2022/02/12 07:12:04;;;;;;;58.05;36.58;;;;;;;2.99;65.82;95469.48;1540076;92;21104;-48
2022/02/12 07:14:34;;;;;;;67.50;38.90;;;;;;;2.98;65.93;95469.28;1539799;91;21508;-50
2022/02/12 07:17:03;;;;;;;81.25;40.00;;;;;;;3.00;65.64;95463.67;1539978;92;21048;-48
2022/02/12 07:19:32;;;;;;;59.65;35.00;;;;;;;3.04;65.39;95467.19;1531324;92;21130;-48
2022/02/12 07:21:59;;;;;;;69.90;39.10;;;;;;;3.06;65.00;95479.80;1542730;92;21271;-49
2022/02/12 07:24:26;;;;;;;65.37;34.83;;;;;;;3.10;64.95;95489.34;1551924;92;21738;-48
2022/02/12 07:26:54;;;;;;;63.87;31.68;;;;;;;3.15;65.11;95491.69;1552217;91;21203;-48
2022/02/12 07:29:21;;;;;;;49.95;27.00;;;;;;;3.15;64.84;95501.20;1554914;91;21103;-47
2022/02/12 07:31:47;;;;;;;37.63;20.02;;;;;;;3.16;64.71;95509.00;1553170;92;21187;-47
2022/02/12 07:34:15;;;;;;;32.83;17.35;;;;;;;3.24;64.46;95511.17;1552200;91;21189;-47
2022/02/12 07:36:42;;;;;;;23.77;16.32;;;;;;;3.48;63.56;95521.56;1551100;91;21083;-48
2022/02/12 07:39:08;;;;;;;33.23;19.77;;;;;;;3.82;63.11;95511.95;1552888;90;21108;-48
2022/02/12 07:41:35;;;;;;;34.53;20.25;;;;;;;4.15;62.60;95507.55;1532381;92;21031;-46
2022/02/12 07:44:02;;;;;;;24.82;16.60;;;;;;;4.34;61.94;95518.06;1552463;91;21062;-48
2022/02/12 07:46:30;;;;;;;39.20;24.92;;;;;;;4.44;60.51;95510.47;1549294;92;21173;-47
2022/02/12 07:48:57;;;;;;;22.75;15.40;;;;;;;4.48;60.23;95518.08;1539428;92;21038;-47
2022/02/12 07:51:23;;;;;;;42.03;20.52;;;;;;;4.53;59.52;95520.41;1535468;90;22275;-47
2022/02/12 07:53:50;;;;;;;25.00;15.75;;;;;;;4.61;59.03;95511.05;1552215;92;21032;-47
2022/02/12 07:56:17;;;;;;;16.82;11.15;;;;;;;4.68;59.06;95517.88;1551720;92;21073;-47
2022/02/12 07:58:45;;;;;;;20.97;11.88;;;;;;;4.76;58.07;95527.59;1555439;92;21556;-49
2022/02/12 08:01:14;;;;;;;17.25;12.40;;;;;;;4.93;57.61;95526.03;1552144;92;21107;-48
2022/02/12 08:03:41;;;;;;;25.88;14.38;;;;;;;5.11;56.71;95528.14;1552586;91;20988;-48
2022/02/12 08:07:27;;;;;;;20.45;12.30;;;;;;;5.30;55.48;95529.83;1553163;92;21044;-49
2022/02/12 08:08:37;;;;;;;13.03;9.58;;;;;;;5.43;54.76;95526.87;1553433;91;21321;-47
2022/02/12 08:11:23;;;;;;;10.48;8.25;;;;;;;5.60;54.69;95527.40;1534955;92;21268;-48
2022/02/12 08:13:50;;;;;;;7.65;5.60;;;;;;;5.82;52.62;95528.88;1552908;91;21053;-50
2022/02/12 08:16:18;;;;;;;6.33;5.58;;;;;;;6.02;51.64;95525.85;1553250;90;21268;-47
2022/02/12 08:18:45;;;;;;;18.40;13.53;;;;;;;6.16;50.40;95532.61;1553254;92;21269;-47
2022/02/12 08:21:12;;;;;;;13.00;11.05;;;;;;;6.18;50.02;95535.11;1554813;90;21044;-47
2022/02/12 08:23:39;;;;;;;12.43;10.20;;;;;;;6.15;49.49;95537.88;1535207;92;21187;-48
2022/02/12 08:26:06;;;;;;;17.65;13.38;;;;;;;6.12;50.37;95537.31;1547531;90;21152;-47
2022/02/12 08:28:34;;;;;;;13.03;8.48;;;;;;;6.18;50.92;95544.67;1531253;92;21611;-47
2022/02/12 08:31:01;;;;;;;5.10;4.60;;;;;;;6.28;50.27;95545.20;1543051;90;21148;-49
2022/02/12 08:33:29;;;;;;;5.10;4.47;;;;;;;6.28;49.78;95556.14;1543202;91;21524;-48
2022/02/12 08:35:56;;;;;;;5.60;5.08;;;;;;;6.19;48.41;95565.95;1547549;90;21219;-49
2022/02/12 08:38:23;;;;;;;7.78;6.17;;;;;;;6.10;48.64;95558.19;1530938;92;21576;-48
2022/02/12 08:40:51;;;;;;;6.42;5.80;;;;;;;6.07;48.94;95563.09;1546271;91;21081;-48
2022/02/12 08:43:18;;;;;;;10.28;9.38;;;;;;;5.99;48.62;95560.79;1544568;90;21036;-48
2022/02/12 08:45:45;;;;;;;8.63;6.45;;;;;;;5.98;47.62;95564.09;1546151;91;21274;-49
2022/02/12 08:48:12;;;;;;;6.67;5.28;;;;;;;6.00;48.95;95559.61;1532140;92;21161;-49
2022/02/12 08:50:38;;;;;;;6.75;5.12;;;;;;;6.06;48.34;95568.94;1543181;91;21151;-49
2022/02/12 08:53:05;;;;;;;5.10;4.12;;;;;;;6.24;48.49;95562.79;1547484;90;21065;-49
2022/02/12 08:55:32;;;;;;;6.95;4.20;;;;;;;6.48;47.56;95568.11;1542946;90;21077;-49
2022/02/12 08:57:59;;;;;;;25.27;10.98;;;;;;;6.67;46.73;95564.08;1541426;91;21001;-49
2022/02/12 09:00:25;;;;;;;12.30;6.90;;;;;;;6.75;47.06;95576.52;1533752;90;21293;-49
2022/02/12 09:02:52;;;;;;;10.43;7.28;;;;;;;6.81;47.27;95585.83;1549716;91;21544;-48
2022/02/12 09:05:20;;;;;;;7.92;5.95;;;;;;;6.77;47.50;95587.82;1545501;90;21153;-48
2022/02/12 09:07:46;;;;;;;7.75;5.58;;;;;;;6.75;47.22;95610.12;1549183;90;21608;-47
2022/02/12 09:10:14;;;;;;;16.32;9.15;;;;;;;6.78;46.11;95611.25;1546003;90;21567;-50
2022/02/12 09:12:42;;;;;;;16.60;9.93;;;;;;;6.70;46.85;95623.43;1541382;91;21191;-47
2022/02/12 09:15:09;;;;;;;7.60;5.42;;;;;;;6.53;47.67;95622.34;1542369;90;21587;-48
2022/02/12 09:17:36;;;;;;;4.90;4.12;;;;;;;6.33;49.77;95635.55;1542477;90;21012;-48
2022/02/12 09:20:05;;;;;;;5.70;4.92;;;;;;;5.95;51.73;95648.80;1542898;90;21122;-49
2022/02/12 09:22:33;;;;;;;5.37;4.50;;;;;;;5.46;54.19;95657.05;1529433;92;21089;-49
2022/02/12 09:25:00;;;;;;;4.42;4.03;;;;;;;4.95;56.47;95656.68;1541223;90;21163;-48
2022/02/12 09:27:27;;;;;;;4.80;4.40;;;;;;;4.58;58.15;95665.78;1537545;90;21060;-48
2022/02/12 09:29:58;;;;;;;4.78;4.30;;;;;;;4.28;59.54;95676.80;1537716;90;21096;-50
2022/02/12 09:32:23;;;;;;;6.20;5.60;;;;;;;3.94;60.82;95693.97;1531909;91;21081;-48
2022/02/12 09:34:50;;;;;;;5.05;4.65;;;;;;;3.63;62.24;95698.66;1546215;90;22287;-49
2022/02/12 09:37:17;;;;;;;5.45;4.28;;;;;;;3.50;63.18;95702.83;1526371;92;21152;-48
2022/02/12 09:39:43;;;;;;;5.42;4.92;;;;;;;3.50;64.27;95700.70;1513721;93;21597;-51
2022/02/12 09:42:10;;;;;;;5.17;4.67;;;;;;;3.61;64.47;95709.13;1524703;92;21070;-48
2022/02/12 09:44:41;;;;;;;5.58;5.10;;;;;;;3.76;64.28;95710.79;1526825;92;21607;-48
2022/02/12 09:47:47;;;;;;;5.80;5.20;;;;;;;3.86;63.00;95712.01;1529279;92;21106;-48
2022/02/12 09:50:22;;;;;;;9.93;7.83;;;;;;;3.93;62.92;95719.64;1525857;92;21234;-47
2022/02/12 09:52:53;;;;;;;12.28;8.70;;;;;;;3.91;63.07;95719.80;1525774;92;21207;-49
2022/02/12 09:55:22;;;;;;;13.48;10.28;;;;;;;3.73;63.41;95731.93;1543480;92;21092;-50
2022/02/12 09:57:49;;;;;;;13.48;9.60;;;;;;;3.73;64.02;95730.57;1551352;92;21019;-48
2022/02/12 10:00:20;;;;;;;7.28;6.12;;;;;;;3.83;64.05;95731.23;1552516;90;21036;-48
2022/02/12 10:02:47;;;;;;;6.25;5.30;;;;;;;3.92;62.89;95722.16;1552071;92;21263;-49
2022/02/12 10:05:26;;;;;;;7.10;5.50;;;;;;;4.04;62.22;95730.58;1549781;92;21183;-49
2022/02/12 10:08:06;;;;;;;9.53;7.17;;;;;;;4.10;62.48;95731.77;1548785;91;21076;-51
2022/02/12 10:10:35;;;;;;;10.18;7.50;;;;;;;4.26;61.95;95734.36;1538089;91;21148;-49
2022/02/12 10:13:20;;;;;;;9.53;8.20;;;;;;;4.46;61.47;95741.05;1532975;92;21157;-48
2022/02/12 10:15:51;;;;;;;16.02;13.20;;;;;;;4.58;60.33;95745.41;1513695;92;39412;-51
2022/02/12 10:18:20;;;;;;;14.33;10.63;;;;;;;4.86;60.24;95744.90;1515135;92;21085;-48
2022/02/12 10:20:47;;;;;;;16.05;10.82;;;;;;;5.09;59.22;95754.08;1511013;92;21071;-50
2022/02/12 10:23:20;;;;;;;15.88;9.75;;;;;;;5.32;58.33;95751.98;1537084;92;21533;-48
2022/02/12 10:25:50;;;;;;;23.80;14.35;;;;;;;5.62;56.65;95750.98;1535866;92;21111;-48
2022/02/12 10:28:18;;;;;;;15.95;10.70;;;;;;;5.62;55.56;95758.41;1513455;92;21990;-49
2022/02/12 10:30:46;;;;;;;17.07;10.65;;;;;;;5.49;55.53;95763.48;1514945;93;21045;-47
2022/02/12 10:33:14;;;;;;;17.80;12.47;;;;;;;5.49;55.93;95762.69;1514731;93;21100;-48
2022/02/12 10:35:41;;;;;;;18.02;12.82;;;;;;;5.57;55.92;95754.12;1514636;92;21172;-49
2022/02/12 10:38:16;;;;;;;31.82;20.30;;;;;;;5.95;55.24;95759.39;1522830;92;21192;-48
2022/02/12 10:40:39;;;;;;;24.47;16.52;;;;;;;6.38;53.95;95760.27;1516037;93;21224;-50
2022/02/12 10:43:06;;;;;;;21.27;13.65;;;;;;;6.86;50.89;95757.73;1502579;93;21174;-50
2022/02/12 10:45:34;;;;;;;31.00;21.17;;;;;;;7.23;49.91;95756.72;1504855;94;21608;-48
2022/02/12 10:48:00;;;;;;;30.85;21.33;;;;;;;7.78;49.12;95749.26;1527089;92;21147;-49
2022/02/12 10:50:29;;;;;;;38.15;24.67;;;;;;;8.44;48.13;95753.92;1516691;92;21220;-50
2022/02/12 10:53:02;;;;;;;26.27;17.82;;;;;;;8.71;45.94;95759.67;1514027;93;21732;-51
2022/02/12 10:55:31;;;;;;;;;;;;;;;8.67;43.89;95758.95;1536735;92;21116;-49
2022/02/12 10:58:02;;;;;;;10.08;6.90;;;;;;;8.32;40.36;95760.71;1540370;91;20173;-48
2022/02/12 11:00:32;;;;;;;19.27;13.83;;;;;;;8.04;39.95;95747.86;1551902;92;21111;-49
2022/02/12 11:03:05;;;;;;;9.98;6.22;;;;;;;8.20;39.92;95760.42;1554268;90;21015;-50
2022/02/12 11:05:34;;;;;;;7.03;5.85;;;;;;;9.03;39.35;95752.59;1550652;92;21243;-50
2022/02/12 11:08:04;;;;;;;3.47;3.17;;;;;;;10.03;37.05;95753.44;1551857;92;21111;-49
2022/02/12 11:10:31;;;;;;;7.08;4.03;;;;;;;10.62;34.93;95757.06;1533759;92;21186;-52
2022/02/12 11:12:58;;;;;;;9.13;7.00;;;;;;;11.25;35.56;95751.81;1551632;92;21170;-50
2022/02/12 11:15:31;;;;;;;5.42;3.90;;;;;;;12.28;34.54;95757.22;1550606;90;21127;-49
2022/02/12 11:18:01;;;;;;;5.37;4.00;;;;;;;13.42;32.72;95748.92;1552064;91;21357;-51
2022/02/12 11:20:28;;;;;;;3.65;2.77;;;;;;;14.32;29.88;95761.08;1552298;91;21056;-50
2022/02/12 11:23:30;;;;;;;6.12;3.10;;;;;;;14.44;28.82;95763.81;1553227;92;21064;-50
2022/02/12 11:26:09;;;;;;;3.22;2.87;;;;;;;14.44;29.06;95763.81;1548377;92;21162;-49
2022/02/12 11:28:37;;;;;;;5.28;3.25;;;;;;;14.47;28.13;95762.91;1551198;91;21064;-50
2022/02/12 11:31:20;;;;;;;3.87;3.12;;;;;;;14.35;28.39;95760.94;1551072;91;21557;-50
2022/02/12 11:34:12;;;;;;;2.58;2.22;;;;;;;14.31;27.54;95767.80;1551440;91;21480;-49
2022/02/12 11:36:41;;;;;;;4.42;2.20;;;;;;;14.46;27.66;95764.89;1550555;92;21108;-49
2022/02/12 11:39:18;;;;;;;3.47;2.05;;;;;;;14.33;26.82;95764.01;1552864;92;21265;-50
2022/02/12 11:41:51;;;;;;;4.10;2.20;;;;;;;14.01;26.18;95769.16;1532042;92;21095;-50
2022/02/12 11:44:48;;;;;;;3.47;2.17;;;;;;;14.01;27.06;95772.55;1555276;91;21818;-50